createdAt,value
2023-03-01T00:03:32.992Z,6.53
2023-03-01T00:08:37.431Z,4.37
2023-03-01T00:13:40.338Z,5.70
2023-03-01T00:18:43.086Z,6.80
2023-03-01T00:23:49.514Z,5.00
2023-03-01T00:28:53.054Z,5.17
2023-03-01T00:33:57.931Z,4.80
2023-03-01T00:39:02.253Z,6.50
2023-03-01T00:44:05.436Z,3.63
2023-03-01T00:49:08.237Z,4.20
2023-03-01T00:54:12.311Z,5.07
2023-03-01T00:59:15.040Z,4.90
2023-03-01T01:04:17.871Z,5.27
2023-03-01T01:09:21.956Z,5.97
2023-03-01T01:14:24.866Z,5.40
2023-03-01T01:19:28.792Z,5.43
2023-03-01T01:24:33.122Z,5.17
2023-03-01T01:29:35.842Z,4.77
2023-03-01T01:34:38.756Z,4.63
2023-03-01T01:39:42.968Z,4.10
2023-03-01T01:44:48.046Z,4.33
2023-03-01T01:49:53.253Z,4.20
2023-03-01T01:55:00.254Z,4.30
2023-03-01T02:00:06.968Z,4.87
2023-03-01T02:05:24.641Z,4.57
2023-03-01T02:10:29.063Z,4.30
2023-03-01T02:15:34.707Z,4.63
2023-03-01T02:20:42.829Z,4.53
2023-03-01T02:25:51.165Z,3.00
2023-03-01T02:31:12.786Z,5.83
2023-03-01T02:36:19.402Z,4.70
2023-03-01T02:41:28.799Z,4.17
2023-03-01T02:46:33.528Z,5.07
2023-03-01T02:51:47.277Z,3.07
2023-03-01T02:56:50.949Z,4.47
2023-03-01T03:01:57.348Z,4.83
2023-03-01T03:07:00.920Z,5.03
2023-03-01T03:12:03.712Z,3.77
2023-03-01T03:17:07.911Z,4.93
2023-03-01T03:22:10.898Z,4.07
2023-03-01T03:27:13.703Z,3.40
2023-03-01T03:32:17.824Z,3.77
2023-03-01T03:37:34.500Z,4.77
2023-03-01T03:42:37.235Z,3.37
2023-03-01T03:47:41.342Z,5.37
2023-03-01T03:52:44.397Z,4.17
2023-03-01T03:57:52.266Z,5.60
2023-03-01T04:02:57.380Z,5.27
2023-03-01T04:08:03.812Z,3.60
2023-03-01T04:13:06.729Z,5.20
2023-03-01T04:18:11.382Z,5.63
2023-03-01T04:23:16.847Z,4.27
2023-03-01T04:28:20.018Z,4.80
2023-03-01T04:33:24.573Z,3.83
2023-03-01T04:38:27.447Z,5.10
2023-03-01T04:43:30.167Z,5.97
2023-03-01T04:48:34.612Z,4.30
2023-03-01T04:53:38.097Z,4.50
2023-03-01T04:58:40.804Z,4.83
2023-03-01T05:03:45.960Z,5.90
2023-03-01T05:08:48.752Z,5.13
2023-03-01T05:13:55.834Z,4.07
2023-03-01T05:19:00.615Z,4.67
2023-03-01T05:24:03.582Z,4.47
2023-03-01T05:29:06.340Z,4.47
2023-03-01T05:34:10.444Z,4.23
2023-03-01T05:39:13.177Z,4.07
2023-03-01T05:44:15.865Z,4.63
2023-03-01T05:49:20.236Z,4.90
2023-03-01T05:54:23.551Z,3.30
2023-03-01T05:59:26.306Z,4.57
2023-03-01T06:04:30.368Z,3.33
2023-03-01T06:09:33.296Z,4.87
2023-03-01T06:14:36.146Z,5.30
2023-03-01T06:19:40.209Z,7.87
2023-03-01T06:24:42.987Z,8.07
2023-03-01T06:29:45.767Z,6.83
2023-03-01T06:34:50.087Z,6.20
2023-03-01T06:39:52.818Z,4.73
2023-03-01T06:44:55.964Z,5.30
2023-03-01T06:50:00.159Z,3.80
2023-03-01T06:55:03.188Z,4.60
2023-03-01T07:00:07.960Z,5.07
2023-03-01T07:05:12.129Z,5.90
2023-03-01T07:10:14.960Z,5.40
2023-03-01T07:15:17.957Z,5.03
2023-03-01T07:20:25.465Z,4.50
2023-03-01T07:25:28.211Z,4.47
2023-03-01T07:30:31.006Z,4.70
2023-03-01T07:35:35.380Z,4.40
2023-03-01T07:40:38.181Z,4.87
2023-03-01T07:45:40.949Z,6.93
2023-03-01T07:50:45.033Z,6.20
2023-03-01T07:55:47.749Z,5.80
2023-03-01T08:00:50.463Z,5.37
2023-03-01T08:05:54.535Z,6.07
2023-03-01T08:10:58.789Z,5.27
2023-03-01T08:16:04.129Z,6.20
2023-03-01T08:21:09.886Z,6.47
2023-03-01T08:26:15.518Z,5.73
2023-03-01T08:31:21.674Z,5.13
2023-03-01T08:36:27.058Z,5.20
2023-03-01T08:41:30.136Z,6.93
2023-03-01T08:46:35.162Z,5.30
2023-03-01T08:51:39.433Z,7.13
2023-03-01T08:56:42.403Z,5.90
2023-03-01T09:01:45.239Z,6.90
2023-03-01T09:06:49.565Z,5.97
2023-03-01T09:11:52.656Z,6.90
2023-03-01T09:16:55.446Z,6.67
2023-03-01T09:21:59.502Z,6.13
2023-03-01T09:27:02.422Z,6.47
2023-03-01T09:32:05.244Z,7.03
2023-03-01T09:37:09.424Z,7.63
2023-03-01T09:42:14.044Z,6.57
2023-03-01T09:47:20.134Z,5.27
2023-03-01T09:52:29.193Z,7.60
2023-03-01T09:57:36.943Z,6.13
2023-03-01T10:02:43.871Z,6.43
2023-03-01T10:07:53.823Z,7.20
2023-03-01T10:12:57.561Z,7.47
2023-03-01T10:18:04.106Z,6.97
2023-03-01T10:23:10.705Z,5.40
2023-03-01T10:28:19.108Z,7.53
2023-03-01T10:33:24.297Z,7.80
2023-03-01T10:38:30.691Z,7.23
2023-03-01T10:43:45.367Z,6.23
2023-03-01T10:48:48.229Z,4.07
2023-03-01T10:53:52.981Z,5.47
2023-03-01T10:59:00.978Z,7.20
2023-03-01T11:04:14.267Z,5.27
2023-03-01T11:09:20.528Z,5.13
2023-03-01T11:14:27.399Z,5.90
2023-03-01T11:19:30.774Z,6.43
2023-03-01T11:24:42.288Z,4.67
2023-03-01T11:29:52.105Z,5.60
2023-03-01T11:34:57.314Z,4.60
2023-03-01T11:40:08.181Z,6.47
2023-03-01T11:45:13.403Z,6.47
2023-03-01T11:50:20.517Z,7.67
2023-03-01T11:55:39.336Z,8.18
2023-03-01T12:00:55.575Z,9.50
2023-03-01T12:06:25.130Z,7.32
2023-03-01T12:11:39.433Z,7.90
2023-03-01T12:17:02.091Z,8.10
2023-03-01T12:22:18.506Z,7.65
2023-03-01T12:27:42.039Z,5.63
2023-03-01T12:32:50.745Z,6.20
2023-03-01T12:37:58.658Z,6.32
2023-03-01T12:43:10.520Z,5.15
2023-03-01T12:48:26.446Z,5.30
2023-03-01T12:53:31.322Z,4.60
2023-03-01T12:58:49.081Z,5.90
2023-03-01T13:04:08.995Z,6.30
2023-03-01T13:09:20.738Z,5.05
2023-03-01T13:14:47.315Z,6.47
2023-03-01T13:19:58.559Z,5.68
2023-03-01T13:25:15.255Z,5.78
2023-03-01T13:30:44.164Z,5.38
2023-03-01T13:35:47.171Z,5.72
2023-03-01T13:41:00.753Z,6.00
2023-03-01T13:46:11.999Z,6.35
2023-03-01T13:51:15.016Z,6.03
2023-03-01T13:56:19.720Z,5.57
2023-03-01T14:01:27.928Z,6.78
2023-03-01T14:06:32.482Z,4.45
2023-03-01T14:12:03.722Z,6.15
2023-03-01T14:17:29.826Z,4.72
2023-03-01T14:22:35.783Z,5.32
2023-03-01T14:27:42.875Z,5.43
2023-03-01T14:32:54.574Z,5.15
2023-03-01T14:37:57.479Z,4.28
2023-03-01T14:43:01.596Z,5.05
2023-03-01T14:48:08.209Z,4.07
2023-03-01T14:53:18.545Z,4.50
2023-03-01T14:58:23.612Z,4.05
2023-03-01T15:03:32.549Z,4.03
2023-03-01T15:08:36.192Z,3.95
2023-03-01T15:13:38.997Z,4.63
2023-03-01T15:18:47.652Z,3.95
2023-03-01T15:23:54.023Z,3.95
2023-03-01T15:29:00.002Z,4.85
2023-03-01T15:34:24.583Z,5.30
2023-03-01T15:39:45.169Z,5.88
2023-03-01T15:44:47.861Z,4.40
2023-03-01T15:49:55.697Z,3.97
2023-03-01T15:55:00.335Z,4.57
2023-03-01T16:00:12.147Z,5.57
2023-03-01T16:05:22.065Z,4.63
2023-03-01T16:10:25.237Z,5.00
2023-03-01T16:15:32.602Z,4.15
2023-03-01T16:20:37.235Z,4.18
2023-03-01T16:25:40.198Z,4.38
2023-03-01T16:30:47.922Z,4.80
2023-03-01T16:35:52.630Z,3.78
2023-03-01T16:40:55.530Z,3.90
2023-03-01T16:45:59.710Z,4.25
2023-03-01T16:51:03.981Z,6.43
2023-03-01T16:56:08.659Z,4.20
2023-03-01T17:01:13.535Z,4.88
2023-03-01T17:06:21.149Z,6.13
2023-03-01T17:11:23.986Z,6.68
2023-03-01T17:16:27.799Z,6.57
2023-03-01T17:21:32.383Z,8.05
2023-03-01T17:26:35.348Z,7.32
2023-03-01T17:31:38.132Z,7.18
2023-03-01T17:36:44.779Z,5.85
2023-03-01T17:41:47.702Z,5.07
2023-03-01T17:46:50.629Z,6.53
2023-03-01T17:51:55.153Z,4.18
2023-03-01T17:56:58.936Z,4.78
2023-03-01T18:02:01.934Z,3.77
2023-03-01T18:07:06.518Z,6.32
2023-03-01T18:12:10.634Z,6.20
2023-03-01T18:17:13.583Z,7.38
2023-03-01T18:22:17.884Z,5.05
2023-03-01T18:27:20.623Z,5.80
2023-03-01T18:32:23.577Z,7.67
2023-03-01T18:37:27.701Z,7.07
2023-03-01T18:42:30.481Z,5.93
2023-03-01T18:47:33.278Z,4.85
2023-03-01T18:52:37.384Z,4.73
2023-03-01T18:57:40.076Z,6.43
2023-03-01T19:02:42.842Z,6.07
2023-03-01T19:07:46.964Z,4.17
2023-03-01T19:12:49.795Z,4.50
2023-03-01T19:17:54.290Z,3.90
2023-03-01T19:22:58.770Z,3.87
2023-03-01T19:28:01.541Z,3.90
2023-03-01T19:33:04.823Z,4.00
2023-03-01T19:38:09.784Z,3.97
2023-03-01T19:43:12.443Z,3.73
2023-03-01T19:48:15.220Z,2.77
2023-03-01T19:53:19.756Z,2.30
2023-03-01T19:58:22.539Z,2.73
2023-03-01T20:03:26.859Z,3.67
2023-03-01T20:08:31.683Z,2.60
2023-03-01T20:13:34.619Z,2.50
2023-03-01T20:18:37.845Z,2.40
2023-03-01T20:23:41.885Z,2.60
2023-03-01T20:28:44.589Z,3.03
2023-03-01T20:33:47.608Z,3.70
2023-03-01T20:38:53.071Z,3.37
2023-03-01T20:43:56.874Z,2.50
2023-03-01T20:48:59.688Z,3.27
2023-03-01T20:54:04.981Z,3.10
2023-03-01T20:59:09.637Z,3.43
2023-03-01T21:04:13.064Z,2.83
2023-03-01T21:09:17.270Z,2.40
2023-03-01T21:14:21.478Z,2.63
2023-03-01T21:19:25.916Z,3.50
2023-03-01T21:24:30.109Z,3.47
2023-03-01T21:29:33.096Z,3.10
2023-03-01T21:34:36.336Z,2.87
2023-03-01T21:39:40.772Z,4.03
2023-03-01T21:44:43.499Z,3.50
2023-03-01T21:49:46.270Z,3.83
2023-03-01T21:54:53.163Z,2.73
2023-03-01T21:59:56.141Z,2.60
2023-03-01T22:04:58.840Z,3.73
2023-03-01T22:10:03.104Z,3.23
2023-03-01T22:15:07.108Z,4.10
2023-03-01T22:20:13.064Z,3.70
2023-03-01T22:25:17.388Z,2.77
2023-03-01T22:30:20.260Z,3.07
2023-03-01T22:35:23.011Z,3.00
2023-03-01T22:40:27.704Z,3.63
2023-03-01T22:45:32.231Z,2.50
2023-03-01T22:50:35.036Z,3.30
2023-03-01T22:55:39.172Z,3.13
2023-03-01T23:00:42.093Z,2.90
2023-03-01T23:05:44.795Z,4.20
2023-03-01T23:10:48.933Z,3.57
2023-03-01T23:15:54.383Z,3.20
2023-03-01T23:20:57.138Z,2.90
2023-03-01T23:26:01.258Z,3.20
2023-03-01T23:31:05.901Z,3.97
2023-03-01T23:36:16.908Z,3.97
2023-03-01T23:41:22.450Z,3.03
2023-03-01T23:46:26.329Z,4.23
2023-03-01T23:51:29.276Z,5.00
2023-03-01T23:56:35.896Z,5.00
